sensor_id;sensor_type;location;lat;lon;timestamp;temperature;humidity
21331;DHT22;10824;51.632;4.950;2023-04-25T00:01:22;7.60;75.70
21331;DHT22;10824;51.632;4.950;2023-04-25T00:03:49;7.50;76.90
21331;DHT22;10824;51.632;4.950;2023-04-25T00:06:17;7.40;77.80
21331;DHT22;10824;51.632;4.950;2023-04-25T00:08:45;7.40;79.10
21331;DHT22;10824;51.632;4.950;2023-04-25T00:11:12;7.40;78.90
21331;DHT22;10824;51.632;4.950;2023-04-25T00:13:39;7.40;79.70
21331;DHT22;10824;51.632;4.950;2023-04-25T00:16:08;7.30;79.30
21331;DHT22;10824;51.632;4.950;2023-04-25T00:18:35;7.30;80.80
21331;DHT22;10824;51.632;4.950;2023-04-25T00:21:03;7.20;80.20
21331;DHT22;10824;51.632;4.950;2023-04-25T00:23:33;7.20;80.10
21331;DHT22;10824;51.632;4.950;2023-04-25T00:26:02;7.20;80.00
21331;DHT22;10824;51.632;4.950;2023-04-25T00:28:29;7.10;81.90
21331;DHT22;10824;51.632;4.950;2023-04-25T00:30:56;7.00;82.60
21331;DHT22;10824;51.632;4.950;2023-04-25T00:33:23;7.00;83.40
21331;DHT22;10824;51.632;4.950;2023-04-25T00:35:50;7.00;84.20
21331;DHT22;10824;51.632;4.950;2023-04-25T00:38:17;7.00;84.10
21331;DHT22;10824;51.632;4.950;2023-04-25T00:40:45;7.00;84.90
21331;DHT22;10824;51.632;4.950;2023-04-25T00:43:12;7.00;86.10
21331;DHT22;10824;51.632;4.950;2023-04-25T00:45:39;7.10;86.10
21331;DHT22;10824;51.632;4.950;2023-04-25T00:48:06;7.10;85.20
21331;DHT22;10824;51.632;4.950;2023-04-25T00:50:34;7.00;84.70
21331;DHT22;10824;51.632;4.950;2023-04-25T00:53:01;7.00;83.90
21331;DHT22;10824;51.632;4.950;2023-04-25T00:55:30;7.00;84.90
21331;DHT22;10824;51.632;4.950;2023-04-25T00:57:58;7.00;85.20
21331;DHT22;10824;51.632;4.950;2023-04-25T01:00:25;7.10;83.50
21331;DHT22;10824;51.632;4.950;2023-04-25T01:02:52;7.10;82.90
21331;DHT22;10824;51.632;4.950;2023-04-25T01:05:20;7.00;81.60
21331;DHT22;10824;51.632;4.950;2023-04-25T01:07:47;7.00;81.10
21331;DHT22;10824;51.632;4.950;2023-04-25T01:10:14;7.10;79.10
21331;DHT22;10824;51.632;4.950;2023-04-25T01:12:41;7.20;79.10
21331;DHT22;10824;51.632;4.950;2023-04-25T01:15:09;7.20;76.90
21331;DHT22;10824;51.632;4.950;2023-04-25T01:17:37;7.20;76.70
21331;DHT22;10824;51.632;4.950;2023-04-25T01:20:05;7.20;76.30
21331;DHT22;10824;51.632;4.950;2023-04-25T01:22:32;7.10;75.40
21331;DHT22;10824;51.632;4.950;2023-04-25T01:25:00;7.20;75.40
21331;DHT22;10824;51.632;4.950;2023-04-25T01:27:30;7.20;75.10
21331;DHT22;10824;51.632;4.950;2023-04-25T01:29:57;7.30;74.70
21331;DHT22;10824;51.632;4.950;2023-04-25T01:32:25;7.20;76.30
21331;DHT22;10824;51.632;4.950;2023-04-25T01:34:55;7.20;76.40
21331;DHT22;10824;51.632;4.950;2023-04-25T01:37:22;7.20;75.20
21331;DHT22;10824;51.632;4.950;2023-04-25T01:39:49;7.20;73.80
21331;DHT22;10824;51.632;4.950;2023-04-25T01:42:16;7.10;73.00
21331;DHT22;10824;51.632;4.950;2023-04-25T01:44:44;7.00;73.80
21331;DHT22;10824;51.632;4.950;2023-04-25T01:47:11;7.00;74.50
21331;DHT22;10824;51.632;4.950;2023-04-25T01:49:38;7.00;74.20
21331;DHT22;10824;51.632;4.950;2023-04-25T01:52:05;7.00;74.40
21331;DHT22;10824;51.632;4.950;2023-04-25T01:54:32;6.90;73.90
21331;DHT22;10824;51.632;4.950;2023-04-25T01:56:59;7.00;74.40
21331;DHT22;10824;51.632;4.950;2023-04-25T01:59:28;6.90;75.00
21331;DHT22;10824;51.632;4.950;2023-04-25T02:02:08;6.90;75.90
21331;DHT22;10824;51.632;4.950;2023-04-25T02:04:35;6.80;74.40
21331;DHT22;10824;51.632;4.950;2023-04-25T02:07:03;6.80;74.70
21331;DHT22;10824;51.632;4.950;2023-04-25T02:09:45;6.80;75.10
21331;DHT22;10824;51.632;4.950;2023-04-25T02:12:12;6.80;74.20
21331;DHT22;10824;51.632;4.950;2023-04-25T02:15:10;6.80;74.10
21331;DHT22;10824;51.632;4.950;2023-04-25T02:17:44;6.80;74.50
21331;DHT22;10824;51.632;4.950;2023-04-25T02:20:12;6.70;75.30
21331;DHT22;10824;51.632;4.950;2023-04-25T02:22:40;6.60;76.00
21331;DHT22;10824;51.632;4.950;2023-04-25T02:25:07;6.60;76.50
21331;DHT22;10824;51.632;4.950;2023-04-25T02:27:35;6.60;76.60
21331;DHT22;10824;51.632;4.950;2023-04-25T02:30:04;6.60;76.60
21331;DHT22;10824;51.632;4.950;2023-04-25T02:32:33;6.60;76.90
21331;DHT22;10824;51.632;4.950;2023-04-25T02:35:02;6.60;77.10
21331;DHT22;10824;51.632;4.950;2023-04-25T02:37:37;6.60;77.10
21331;DHT22;10824;51.632;4.950;2023-04-25T02:40:04;6.60;76.50
21331;DHT22;10824;51.632;4.950;2023-04-25T02:42:32;6.60;76.50
21331;DHT22;10824;51.632;4.950;2023-04-25T02:44:59;6.60;77.50
21331;DHT22;10824;51.632;4.950;2023-04-25T02:47:27;6.60;77.20
21331;DHT22;10824;51.632;4.950;2023-04-25T02:49:56;6.60;78.40
21331;DHT22;10824;51.632;4.950;2023-04-25T02:52:23;6.60;80.10
21331;DHT22;10824;51.632;4.950;2023-04-25T02:54:58;6.50;80.50
21331;DHT22;10824;51.632;4.950;2023-04-25T02:57:27;6.50;81.90
21331;DHT22;10824;51.632;4.950;2023-04-25T02:59:54;6.50;82.10
21331;DHT22;10824;51.632;4.950;2023-04-25T03:02:22;6.50;82.50
21331;DHT22;10824;51.632;4.950;2023-04-25T03:04:49;6.50;82.50
21331;DHT22;10824;51.632;4.950;2023-04-25T03:07:16;6.60;82.60
21331;DHT22;10824;51.632;4.950;2023-04-25T03:09:43;6.60;82.50
21331;DHT22;10824;51.632;4.950;2023-04-25T03:12:11;6.60;82.50
21331;DHT22;10824;51.632;4.950;2023-04-25T03:14:38;6.60;82.50
21331;DHT22;10824;51.632;4.950;2023-04-25T03:17:06;6.60;82.50
21331;DHT22;10824;51.632;4.950;2023-04-25T03:19:34;6.60;82.50
21331;DHT22;10824;51.632;4.950;2023-04-25T03:22:02;6.60;82.50
21331;DHT22;10824;51.632;4.950;2023-04-25T03:24:29;6.60;83.30
21331;DHT22;10824;51.632;4.950;2023-04-25T03:26:56;6.60;83.40
21331;DHT22;10824;51.632;4.950;2023-04-25T03:29:23;6.50;82.50
21331;DHT22;10824;51.632;4.950;2023-04-25T03:31:54;6.60;81.90
21331;DHT22;10824;51.632;4.950;2023-04-25T03:34:22;6.60;82.50
21331;DHT22;10824;51.632;4.950;2023-04-25T03:36:49;6.60;82.50
21331;DHT22;10824;51.632;4.950;2023-04-25T03:39:16;6.60;82.50
21331;DHT22;10824;51.632;4.950;2023-04-25T03:41:47;6.60;82.50
21331;DHT22;10824;51.632;4.950;2023-04-25T03:44:17;6.60;82.50
21331;DHT22;10824;51.632;4.950;2023-04-25T03:46:44;6.60;82.20
21331;DHT22;10824;51.632;4.950;2023-04-25T03:49:11;6.60;82.20
21331;DHT22;10824;51.632;4.950;2023-04-25T03:51:53;6.60;82.50
21331;DHT22;10824;51.632;4.950;2023-04-25T03:54:22;6.60;81.40
21331;DHT22;10824;51.632;4.950;2023-04-25T03:56:55;6.60;81.10
21331;DHT22;10824;51.632;4.950;2023-04-25T03:59:26;6.60;80.00
21331;DHT22;10824;51.632;4.950;2023-04-25T04:01:54;6.60;80.00
21331;DHT22;10824;51.632;4.950;2023-04-25T04:04:22;6.60;79.20
21331;DHT22;10824;51.632;4.950;2023-04-25T04:06:50;6.60;79.50
21331;DHT22;10824;51.632;4.950;2023-04-25T04:09:23;6.60;79.10
21331;DHT22;10824;51.632;4.950;2023-04-25T04:11:50;6.50;78.80
21331;DHT22;10824;51.632;4.950;2023-04-25T04:14:17;6.60;77.90
21331;DHT22;10824;51.632;4.950;2023-04-25T04:16:46;6.60;76.00
21331;DHT22;10824;51.632;4.950;2023-04-25T04:19:13;6.60;75.80
21331;DHT22;10824;51.632;4.950;2023-04-25T04:21:46;6.50;75.80
21331;DHT22;10824;51.632;4.950;2023-04-25T04:24:13;6.60;75.10
21331;DHT22;10824;51.632;4.950;2023-04-25T04:26:49;6.60;72.20
21331;DHT22;10824;51.632;4.950;2023-04-25T04:29:37;6.60;69.40
21331;DHT22;10824;51.632;4.950;2023-04-25T04:32:15;6.60;67.50
21331;DHT22;10824;51.632;4.950;2023-04-25T04:34:42;6.70;66.20
21331;DHT22;10824;51.632;4.950;2023-04-25T04:37:11;6.60;63.50
21331;DHT22;10824;51.632;4.950;2023-04-25T04:39:40;6.60;59.70
21331;DHT22;10824;51.632;4.950;2023-04-25T04:42:26;6.60;56.40
21331;DHT22;10824;51.632;4.950;2023-04-25T04:45:04;6.70;46.70
21331;DHT22;10824;51.632;4.950;2023-04-25T04:47:56;6.70;46.70
21331;DHT22;10824;51.632;4.950;2023-04-25T04:50:38;6.60;45.30
21331;DHT22;10824;51.632;4.950;2023-04-25T04:53:26;6.70;46.70
21331;DHT22;10824;51.632;4.950;2023-04-25T04:56:08;6.70;45.40
21331;DHT22;10824;51.632;4.950;2023-04-25T04:58:53;6.70;41.70
21331;DHT22;10824;51.632;4.950;2023-04-25T05:01:42;6.70;41.30
21331;DHT22;10824;51.632;4.950;2023-04-25T05:04:40;6.80;43.70
21331;DHT22;10824;51.632;4.950;2023-04-25T05:07:27;6.70;40.40
21331;DHT22;10824;51.632;4.950;2023-04-25T05:10:19;6.70;40.00
21331;DHT22;10824;51.632;4.950;2023-04-25T05:13:04;6.70;40.50
21331;DHT22;10824;51.632;4.950;2023-04-25T05:15:51;6.80;43.30
21331;DHT22;10824;51.632;4.950;2023-04-25T05:18:41;6.80;43.90
21331;DHT22;10824;51.632;4.950;2023-04-25T05:21:26;6.80;45.40
21331;DHT22;10824;51.632;4.950;2023-04-25T05:24:14;6.80;46.70
21331;DHT22;10824;51.632;4.950;2023-04-25T05:26:59;6.90;47.50
21331;DHT22;10824;51.632;4.950;2023-04-25T05:29:46;6.90;46.80
21331;DHT22;10824;51.632;4.950;2023-04-25T05:32:25;6.90;48.10
21331;DHT22;10824;51.632;4.950;2023-04-25T05:34:52;6.90;49.80
21331;DHT22;10824;51.632;4.950;2023-04-25T05:37:26;6.90;50.20
21331;DHT22;10824;51.632;4.950;2023-04-25T05:40:04;6.90;49.40
21331;DHT22;10824;51.632;4.950;2023-04-25T05:42:52;7.00;50.70
21331;DHT22;10824;51.632;4.950;2023-04-25T05:45:29;7.00;51.90
21331;DHT22;10824;51.632;4.950;2023-04-25T05:48:28;7.00;51.70
21331;DHT22;10824;51.632;4.950;2023-04-25T05:50:59;7.10;53.40
21331;DHT22;10824;51.632;4.950;2023-04-25T05:53:47;7.10;51.90
21331;DHT22;10824;51.632;4.950;2023-04-25T05:56:15;7.10;51.50
21331;DHT22;10824;51.632;4.950;2023-04-25T05:58:42;7.10;52.10
21331;DHT22;10824;51.632;4.950;2023-04-25T06:01:12;7.10;52.60
21331;DHT22;10824;51.632;4.950;2023-04-25T06:03:39;7.20;52.30
21331;DHT22;10824;51.632;4.950;2023-04-25T06:06:11;7.10;51.80
21331;DHT22;10824;51.632;4.950;2023-04-25T06:08:38;7.00;52.00
21331;DHT22;10824;51.632;4.950;2023-04-25T06:11:05;7.10;51.80
21331;DHT22;10824;51.632;4.950;2023-04-25T06:13:33;7.10;51.80
21331;DHT22;10824;51.632;4.950;2023-04-25T06:16:00;7.10;52.40
21331;DHT22;10824;51.632;4.950;2023-04-25T06:18:27;7.20;52.40
21331;DHT22;10824;51.632;4.950;2023-04-25T06:20:55;7.20;52.20
21331;DHT22;10824;51.632;4.950;2023-04-25T06:23:23;7.30;52.00
21331;DHT22;10824;51.632;4.950;2023-04-25T06:25:59;7.30;51.40
21331;DHT22;10824;51.632;4.950;2023-04-25T06:28:30;7.30;50.90
21331;DHT22;10824;51.632;4.950;2023-04-25T06:30:58;7.30;50.40
21331;DHT22;10824;51.632;4.950;2023-04-25T06:33:26;7.40;51.20
21331;DHT22;10824;51.632;4.950;2023-04-25T06:35:54;7.40;51.40
21331;DHT22;10824;51.632;4.950;2023-04-25T06:38:25;7.40;52.20
21331;DHT22;10824;51.632;4.950;2023-04-25T06:40:55;7.50;53.20
21331;DHT22;10824;51.632;4.950;2023-04-25T06:43:22;7.50;50.90
21331;DHT22;10824;51.632;4.950;2023-04-25T06:45:49;7.60;50.10
21331;DHT22;10824;51.632;4.950;2023-04-25T06:48:18;7.50;48.10
21331;DHT22;10824;51.632;4.950;2023-04-25T06:50:46;7.60;47.70
21331;DHT22;10824;51.632;4.950;2023-04-25T06:53:13;7.50;47.10
21331;DHT22;10824;51.632;4.950;2023-04-25T06:55:43;7.60;48.60
21331;DHT22;10824;51.632;4.950;2023-04-25T06:58:21;7.70;50.00
21331;DHT22;10824;51.632;4.950;2023-04-25T07:00:56;7.60;46.80
21331;DHT22;10824;51.632;4.950;2023-04-25T07:03:25;7.70;47.20
21331;DHT22;10824;51.632;4.950;2023-04-25T07:05:58;7.70;46.30
21331;DHT22;10824;51.632;4.950;2023-04-25T07:08:25;7.70;45.70
21331;DHT22;10824;51.632;4.950;2023-04-25T07:10:52;7.60;44.50
21331;DHT22;10824;51.632;4.950;2023-04-25T07:13:20;7.60;43.50
21331;DHT22;10824;51.632;4.950;2023-04-25T07:15:47;7.60;40.40
21331;DHT22;10824;51.632;4.950;2023-04-25T07:18:17;7.70;42.40
21331;DHT22;10824;51.632;4.950;2023-04-25T07:20:44;7.80;43.80
21331;DHT22;10824;51.632;4.950;2023-04-25T07:23:12;7.90;44.50
21331;DHT22;10824;51.632;4.950;2023-04-25T07:25:39;7.90;45.00
21331;DHT22;10824;51.632;4.950;2023-04-25T07:28:08;7.90;44.70
21331;DHT22;10824;51.632;4.950;2023-04-25T07:30:36;7.80;41.10
21331;DHT22;10824;51.632;4.950;2023-04-25T07:33:03;8.00;40.20
21331;DHT22;10824;51.632;4.950;2023-04-25T07:35:31;7.90;39.20
21331;DHT22;10824;51.632;4.950;2023-04-25T07:37:58;7.80;39.80
21331;DHT22;10824;51.632;4.950;2023-04-25T07:40:26;7.70;39.20
21331;DHT22;10824;51.632;4.950;2023-04-25T07:42:59;7.70;38.50
21331;DHT22;10824;51.632;4.950;2023-04-25T07:45:34;7.70;39.50
21331;DHT22;10824;51.632;4.950;2023-04-25T07:48:03;7.80;39.40
21331;DHT22;10824;51.632;4.950;2023-04-25T07:50:34;7.80;39.50
21331;DHT22;10824;51.632;4.950;2023-04-25T07:53:01;8.00;40.50
21331;DHT22;10824;51.632;4.950;2023-04-25T07:55:35;8.00;37.90
21331;DHT22;10824;51.632;4.950;2023-04-25T07:58:15;8.10;37.80
21331;DHT22;10824;51.632;4.950;2023-04-25T08:00:51;8.20;37.10
21331;DHT22;10824;51.632;4.950;2023-04-25T08:03:40;8.10;33.90
21331;DHT22;10824;51.632;4.950;2023-04-25T08:06:17;8.20;34.90
21331;DHT22;10824;51.632;4.950;2023-04-25T08:09:02;8.40;36.20
21331;DHT22;10824;51.632;4.950;2023-04-25T08:11:36;8.40;32.00
21331;DHT22;10824;51.632;4.950;2023-04-25T08:14:05;8.50;32.40
21331;DHT22;10824;51.632;4.950;2023-04-25T08:16:33;8.60;31.80
21331;DHT22;10824;51.632;4.950;2023-04-25T08:19:01;8.70;32.10
21331;DHT22;10824;51.632;4.950;2023-04-25T08:21:30;8.80;31.70
21331;DHT22;10824;51.632;4.950;2023-04-25T08:24:00;8.80;29.10
21331;DHT22;10824;51.632;4.950;2023-04-25T08:26:33;8.90;29.50
21331;DHT22;10824;51.632;4.950;2023-04-25T08:29:01;9.00;30.20
21331;DHT22;10824;51.632;4.950;2023-04-25T08:31:28;9.00;29.10
21331;DHT22;10824;51.632;4.950;2023-04-25T08:34:00;9.10;28.50
21331;DHT22;10824;51.632;4.950;2023-04-25T08:36:38;9.00;27.30
21331;DHT22;10824;51.632;4.950;2023-04-25T08:39:19;9.00;28.00
21331;DHT22;10824;51.632;4.950;2023-04-25T08:42:12;9.10;27.60
21331;DHT22;10824;51.632;4.950;2023-04-25T08:44:39;9.20;27.60
21331;DHT22;10824;51.632;4.950;2023-04-25T08:47:06;9.20;28.20
21331;DHT22;10824;51.632;4.950;2023-04-25T08:49:45;9.20;28.00
21331;DHT22;10824;51.632;4.950;2023-04-25T08:52:14;9.30;28.10
21331;DHT22;10824;51.632;4.950;2023-04-25T08:54:48;9.60;28.10
21331;DHT22;10824;51.632;4.950;2023-04-25T08:57:17;9.80;26.40
21331;DHT22;10824;51.632;4.950;2023-04-25T08:59:46;9.70;18.30
21331;DHT22;10824;51.632;4.950;2023-04-25T09:02:15;9.80;17.30
21331;DHT22;10824;51.632;4.950;2023-04-25T09:04:48;9.80;17.20
21331;DHT22;10824;51.632;4.950;2023-04-25T09:07:17;9.90;17.00
21331;DHT22;10824;51.632;4.950;2023-04-25T09:09:47;10.10;14.30
21331;DHT22;10824;51.632;4.950;2023-04-25T09:12:20;10.20;14.60
21331;DHT22;10824;51.632;4.950;2023-04-25T09:15:08;10.50;16.70
21331;DHT22;10824;51.632;4.950;2023-04-25T09:17:55;10.60;12.70
21331;DHT22;10824;51.632;4.950;2023-04-25T09:20:25;10.60;14.10
21331;DHT22;10824;51.632;4.950;2023-04-25T09:23:02;10.90;13.00
21331;DHT22;10824;51.632;4.950;2023-04-25T09:25:38;11.00;10.80
21331;DHT22;10824;51.632;4.950;2023-04-25T09:28:11;10.80;11.30
21331;DHT22;10824;51.632;4.950;2023-04-25T09:30:39;11.10;13.40
21331;DHT22;10824;51.632;4.950;2023-04-25T09:33:19;11.10;5.70
21331;DHT22;10824;51.632;4.950;2023-04-25T09:35:50;11.20;4.10
21331;DHT22;10824;51.632;4.950;2023-04-25T09:38:32;11.00;7.40
21331;DHT22;10824;51.632;4.950;2023-04-25T09:41:12;10.70;4.20
21331;DHT22;10824;51.632;4.950;2023-04-25T09:43:48;10.70;7.20
21331;DHT22;10824;51.632;4.950;2023-04-25T09:46:16;10.40;4.60
21331;DHT22;10824;51.632;4.950;2023-04-25T09:48:53;10.30;8.00
21331;DHT22;10824;51.632;4.950;2023-04-25T09:51:34;10.20;7.50
21331;DHT22;10824;51.632;4.950;2023-04-25T09:54:04;10.30;4.60
21331;DHT22;10824;51.632;4.950;2023-04-25T09:56:41;10.30;2.80
21331;DHT22;10824;51.632;4.950;2023-04-25T09:59:09;10.30;1.40
21331;DHT22;10824;51.632;4.950;2023-04-25T10:01:40;10.20;1.00
21331;DHT22;10824;51.632;4.950;2023-04-25T10:04:19;10.20;2.70
21331;DHT22;10824;51.632;4.950;2023-04-25T10:07:05;9.90;5.90
21331;DHT22;10824;51.632;4.950;2023-04-25T10:09:33;9.80;6.00
21331;DHT22;10824;51.632;4.950;2023-04-25T10:12:02;9.90;8.00
21331;DHT22;10824;51.632;4.950;2023-04-25T10:14:31;10.00;7.40
21331;DHT22;10824;51.632;4.950;2023-04-25T10:16:59;10.20;5.30
21331;DHT22;10824;51.632;4.950;2023-04-25T10:19:28;10.30;5.90
21331;DHT22;10824;51.632;4.950;2023-04-25T10:24:31;10.40;7.20
21331;DHT22;10824;51.632;4.950;2023-04-25T10:26:59;10.60;7.20
21331;DHT22;10824;51.632;4.950;2023-04-25T10:29:27;10.40;3.10
21331;DHT22;10824;51.632;4.950;2023-04-25T10:31:55;10.60;6.10
21331;DHT22;10824;51.632;4.950;2023-04-25T10:34:40;10.60;5.50
21331;DHT22;10824;51.632;4.950;2023-04-25T10:37:11;10.40;6.00
21331;DHT22;10824;51.632;4.950;2023-04-25T10:39:42;10.40;5.60
21331;DHT22;10824;51.632;4.950;2023-04-25T10:42:09;10.50;6.00
21331;DHT22;10824;51.632;4.950;2023-04-25T10:44:37;10.80;2.40
21331;DHT22;10824;51.632;4.950;2023-04-25T10:47:08;11.20;1.30
21331;DHT22;10824;51.632;4.950;2023-04-25T10:49:41;11.30;1.00
21331;DHT22;10824;51.632;4.950;2023-04-25T10:52:29;11.20;1.00
21331;DHT22;10824;51.632;4.950;2023-04-25T10:54:57;11.10;1.00
21331;DHT22;10824;51.632;4.950;2023-04-25T10:57:36;10.70;10.60
21331;DHT22;10824;51.632;4.950;2023-04-25T11:00:13;10.20;18.90
21331;DHT22;10824;51.632;4.950;2023-04-25T11:02:52;10.00;26.80
21331;DHT22;10824;51.632;4.950;2023-04-25T11:05:41;10.00;28.80
21331;DHT22;10824;51.632;4.950;2023-04-25T11:08:28;9.60;21.50
21331;DHT22;10824;51.632;4.950;2023-04-25T11:11:01;9.60;23.50
21331;DHT22;10824;51.632;4.950;2023-04-25T11:13:29;9.80;26.30
21331;DHT22;10824;51.632;4.950;2023-04-25T11:15:57;9.90;23.70
21331;DHT22;10824;51.632;4.950;2023-04-25T11:18:41;10.00;25.30
21331;DHT22;10824;51.632;4.950;2023-04-25T11:21:08;9.90;21.10
21331;DHT22;10824;51.632;4.950;2023-04-25T11:23:40;9.80;18.10
21331;DHT22;10824;51.632;4.950;2023-04-25T11:26:07;9.90;18.10
21331;DHT22;10824;51.632;4.950;2023-04-25T11:28:34;9.90;16.90
21331;DHT22;10824;51.632;4.950;2023-04-25T11:31:03;10.00;14.20
21331;DHT22;10824;51.632;4.950;2023-04-25T11:33:31;10.30;11.40
21331;DHT22;10824;51.632;4.950;2023-04-25T11:35:58;10.60;8.20
21331;DHT22;10824;51.632;4.950;2023-04-25T11:38:25;11.10;8.30
21331;DHT22;10824;51.632;4.950;2023-04-25T11:40:55;11.40;8.30
21331;DHT22;10824;51.632;4.950;2023-04-25T11:43:22;11.60;11.10
21331;DHT22;10824;51.632;4.950;2023-04-25T11:45:50;11.50;6.60
21331;DHT22;10824;51.632;4.950;2023-04-25T11:48:18;11.20;7.40
21331;DHT22;10824;51.632;4.950;2023-04-25T11:50:53;11.00;6.40
21331;DHT22;10824;51.632;4.950;2023-04-25T11:53:21;10.50;6.40
21331;DHT22;10824;51.632;4.950;2023-04-25T11:55:50;10.20;5.80
21331;DHT22;10824;51.632;4.950;2023-04-25T11:58:17;10.10;6.80
21331;DHT22;10824;51.632;4.950;2023-04-25T12:00:46;10.00;7.00
21331;DHT22;10824;51.632;4.950;2023-04-25T12:03:18;9.90;7.20
21331;DHT22;10824;51.632;4.950;2023-04-25T12:05:47;10.00;6.60
21331;DHT22;10824;51.632;4.950;2023-04-25T12:08:15;10.10;8.10
21331;DHT22;10824;51.632;4.950;2023-04-25T12:10:45;10.20;9.20
21331;DHT22;10824;51.632;4.950;2023-04-25T12:13:38;10.40;8.30
21331;DHT22;10824;51.632;4.950;2023-04-25T12:16:06;10.50;6.00
21331;DHT22;10824;51.632;4.950;2023-04-25T12:18:35;10.50;4.90
21331;DHT22;10824;51.632;4.950;2023-04-25T12:21:04;10.60;5.10
21331;DHT22;10824;51.632;4.950;2023-04-25T12:23:31;10.90;5.20
21331;DHT22;10824;51.632;4.950;2023-04-25T12:25:58;11.30;2.60
21331;DHT22;10824;51.632;4.950;2023-04-25T12:28:26;11.50;2.60
21331;DHT22;10824;51.632;4.950;2023-04-25T12:31:03;12.00;1.40
21331;DHT22;10824;51.632;4.950;2023-04-25T12:33:36;11.90;1.00
21331;DHT22;10824;51.632;4.950;2023-04-25T12:36:04;11.90;1.00
21331;DHT22;10824;51.632;4.950;2023-04-25T12:38:40;11.80;1.00
21331;DHT22;10824;51.632;4.950;2023-04-25T12:41:08;11.50;1.00
21331;DHT22;10824;51.632;4.950;2023-04-25T12:43:36;11.40;1.00
21331;DHT22;10824;51.632;4.950;2023-04-25T12:46:03;11.40;3.30
21331;DHT22;10824;51.632;4.950;2023-04-25T12:48:30;11.00;1.00
21331;DHT22;10824;51.632;4.950;2023-04-25T12:50:58;10.70;1.00
21331;DHT22;10824;51.632;4.950;2023-04-25T12:53:25;10.70;1.00
21331;DHT22;10824;51.632;4.950;2023-04-25T12:55:53;10.70;2.90
21331;DHT22;10824;51.632;4.950;2023-04-25T12:58:21;10.70;1.00
21331;DHT22;10824;51.632;4.950;2023-04-25T13:00:48;10.60;2.80
21331;DHT22;10824;51.632;4.950;2023-04-25T13:03:16;10.70;4.10
21331;DHT22;10824;51.632;4.950;2023-04-25T13:05:43;10.60;2.80
21331;DHT22;10824;51.632;4.950;2023-04-25T13:08:10;10.90;3.50
21331;DHT22;10824;51.632;4.950;2023-04-25T13:10:38;10.90;3.90
21331;DHT22;10824;51.632;4.950;2023-04-25T13:13:06;10.80;3.90
21331;DHT22;10824;51.632;4.950;2023-04-25T13:15:33;10.90;3.50
21331;DHT22;10824;51.632;4.950;2023-04-25T13:18:00;11.00;1.50
21331;DHT22;10824;51.632;4.950;2023-04-25T13:20:27;11.20;1.00
21331;DHT22;10824;51.632;4.950;2023-04-25T13:22:55;11.60;1.00
21331;DHT22;10824;51.632;4.950;2023-04-25T13:25:26;11.70;1.00
21331;DHT22;10824;51.632;4.950;2023-04-25T13:27:53;11.80;1.00
21331;DHT22;10824;51.632;4.950;2023-04-25T13:30:21;12.30;1.00
21331;DHT22;10824;51.632;4.950;2023-04-25T13:32:49;12.60;1.00
21331;DHT22;10824;51.632;4.950;2023-04-25T13:35:17;12.70;1.00
21331;DHT22;10824;51.632;4.950;2023-04-25T13:37:44;12.20;1.00
21331;DHT22;10824;51.632;4.950;2023-04-25T13:40:12;12.00;1.00
21331;DHT22;10824;51.632;4.950;2023-04-25T13:42:39;11.80;1.00
21331;DHT22;10824;51.632;4.950;2023-04-25T13:45:07;11.60;1.00
21331;DHT22;10824;51.632;4.950;2023-04-25T13:47:34;11.60;1.00
21331;DHT22;10824;51.632;4.950;2023-04-25T13:50:03;11.80;1.00
21331;DHT22;10824;51.632;4.950;2023-04-25T13:52:30;12.10;1.00
21331;DHT22;10824;51.632;4.950;2023-04-25T13:54:58;12.10;1.00
21331;DHT22;10824;51.632;4.950;2023-04-25T13:57:27;11.90;1.00
21331;DHT22;10824;51.632;4.950;2023-04-25T13:59:54;11.60;1.00
21331;DHT22;10824;51.632;4.950;2023-04-25T14:02:21;11.70;1.00
21331;DHT22;10824;51.632;4.950;2023-04-25T14:04:49;11.70;1.00
21331;DHT22;10824;51.632;4.950;2023-04-25T14:07:16;11.80;1.00
21331;DHT22;10824;51.632;4.950;2023-04-25T14:09:43;11.80;1.00
21331;DHT22;10824;51.632;4.950;2023-04-25T14:12:11;11.40;1.00
21331;DHT22;10824;51.632;4.950;2023-04-25T14:14:38;11.30;1.00
21331;DHT22;10824;51.632;4.950;2023-04-25T14:17:05;11.60;1.00
21331;DHT22;10824;51.632;4.950;2023-04-25T14:19:33;12.10;1.00
21331;DHT22;10824;51.632;4.950;2023-04-25T14:22:00;12.40;1.00
21331;DHT22;10824;51.632;4.950;2023-04-25T14:24:29;12.60;1.00
21331;DHT22;10824;51.632;4.950;2023-04-25T14:26:56;12.70;1.00
21331;DHT22;10824;51.632;4.950;2023-04-25T14:29:23;12.70;1.00
21331;DHT22;10824;51.632;4.950;2023-04-25T14:31:50;12.30;1.00
21331;DHT22;10824;51.632;4.950;2023-04-25T14:34:17;11.80;1.00
21331;DHT22;10824;51.632;4.950;2023-04-25T14:36:44;11.40;1.00
21331;DHT22;10824;51.632;4.950;2023-04-25T14:39:12;11.30;1.00
21331;DHT22;10824;51.632;4.950;2023-04-25T14:41:40;11.30;1.00
21331;DHT22;10824;51.632;4.950;2023-04-25T14:44:07;11.20;1.00
21331;DHT22;10824;51.632;4.950;2023-04-25T14:46:35;11.20;1.00
21331;DHT22;10824;51.632;4.950;2023-04-25T14:49:03;11.40;1.00
21331;DHT22;10824;51.632;4.950;2023-04-25T14:51:30;11.50;1.00
21331;DHT22;10824;51.632;4.950;2023-04-25T14:53:57;11.40;1.00
21331;DHT22;10824;51.632;4.950;2023-04-25T14:56:24;11.40;1.00
21331;DHT22;10824;51.632;4.950;2023-04-25T14:58:52;11.30;1.00
21331;DHT22;10824;51.632;4.950;2023-04-25T15:01:19;11.10;1.00
21331;DHT22;10824;51.632;4.950;2023-04-25T15:03:47;11.00;1.00
21331;DHT22;10824;51.632;4.950;2023-04-25T15:06:15;11.20;2.70
21331;DHT22;10824;51.632;4.950;2023-04-25T15:08:43;11.10;3.00
21331;DHT22;10824;51.632;4.950;2023-04-25T15:11:10;10.90;1.40
21331;DHT22;10824;51.632;4.950;2023-04-25T15:13:37;10.90;3.00
21331;DHT22;10824;51.632;4.950;2023-04-25T15:16:05;10.70;2.90
21331;DHT22;10824;51.632;4.950;2023-04-25T15:18:33;10.70;4.70
21331;DHT22;10824;51.632;4.950;2023-04-25T15:21:00;10.80;4.50
21331;DHT22;10824;51.632;4.950;2023-04-25T15:23:28;10.80;1.10
21331;DHT22;10824;51.632;4.950;2023-04-25T15:25:55;11.00;1.00
21331;DHT22;10824;51.632;4.950;2023-04-25T15:28:23;10.90;1.00
21331;DHT22;10824;51.632;4.950;2023-04-25T15:30:50;11.00;1.00
21331;DHT22;10824;51.632;4.950;2023-04-25T15:33:17;11.30;1.00
21331;DHT22;10824;51.632;4.950;2023-04-25T15:35:44;11.30;1.00
21331;DHT22;10824;51.632;4.950;2023-04-25T15:38:11;11.50;1.00
21331;DHT22;10824;51.632;4.950;2023-04-25T15:40:40;11.40;1.00
21331;DHT22;10824;51.632;4.950;2023-04-25T15:43:07;11.40;1.00
21331;DHT22;10824;51.632;4.950;2023-04-25T15:45:41;11.60;1.00
21331;DHT22;10824;51.632;4.950;2023-04-25T15:48:08;11.60;1.00
21331;DHT22;10824;51.632;4.950;2023-04-25T15:50:36;11.80;1.00
21331;DHT22;10824;51.632;4.950;2023-04-25T15:53:04;11.50;1.00
21331;DHT22;10824;51.632;4.950;2023-04-25T15:55:33;11.70;1.00
21331;DHT22;10824;51.632;4.950;2023-04-25T15:58:01;12.10;1.00
21331;DHT22;10824;51.632;4.950;2023-04-25T16:00:28;11.70;1.00
21331;DHT22;10824;51.632;4.950;2023-04-25T16:02:55;11.70;1.00
21331;DHT22;10824;51.632;4.950;2023-04-25T16:05:23;11.50;1.00
21331;DHT22;10824;51.632;4.950;2023-04-25T16:07:50;11.20;1.00
21331;DHT22;10824;51.632;4.950;2023-04-25T16:10:19;11.30;1.00